PDT,Max TemperatureF,Mean TemperatureF,Min TemperatureF,Max Dew PointF,MeanDew PointF,Min DewpointF,Max Humidity, Mean Humidity, Min Humidity, Max Sea Level PressureIn, Mean Sea Level PressureIn, Min Sea Level PressureIn, Max VisibilityMiles, Mean VisibilityMiles, Min VisibilityMiles, Max Wind SpeedMPH, Mean Wind SpeedMPH, Max Gust SpeedMPH,PrecipitationIn, CloudCover, Events, WindDirDegrees
2013-3-1,53,40,27,41,33,27,100,93,59,30.54,30.47,30.37,10,4,0,12,3,13,0.00,5,Fog,358
2013-3-2,56,42,27,37,32,27,100,79,41,30.35,30.22,30.11,10,8,1,13,3,16,0.02,6,Fog-Rain,319
2013-3-3,50,39,28,37,32,23,100,80,46,30.13,30.08,30.02,10,9,6,12,4,14,0.07,4,Rain,314
2013-3-4,55,39,22,32,25,17,81,63,38,30.15,30.04,29.92,10,10,7,17,6,21,0.00,2,,139
2013-3-5,45,41,37,36,29,24,85,65,45,29.89,29.76,29.59,10,9,7,36,18,45,0.02,8,Rain,162
2013-3-6,41,35,28,32,29,21,96,82,54,29.97,29.69,29.52,10,7,1,29,12,35,0.04,7,Rain-Snow,204
2013-3-7,43,33,22,28,24,18,92,72,36,29.99,29.94,29.90,10,9,4,12,4,22,T,6,Snow,87
2013-3-8,47,34,21,,,,,,,,,,,,,18,8,21,0.00,,,
2013-3-9,53,37,21,,,,,,,,,,,,,,,,0.00,,,
2013-3-10,58,38,18,,,,,,,,,,,,,,,,0.00,,,
2013-3-11,61,43,24,34,30,23,92,64,33,30.37,30.28,30.20,10,10,7,17,2,18,0.00,4,,330
2013-3-12,64,45,25,37,29,19,100,65,19,30.25,30.20,30.13,10,10,7,10,3,12,0.00,3,,209
2013-3-13,66,47,27,34,30,25,92,64,22,30.25,30.20,30.14,10,10,10,7,1,10,0.00,3,,141
2013-3-14,66,50,33,37,31,25,85,61,22,30.19,30.15,30.10,10,10,7,16,4,20,0.00,4,,285
2013-3-15,62,47,31,34,30,25,89,64,28,30.21,30.17,30.10,10,10,10,16,4,22,0.00,2,,327
2013-3-16,56,39,22,36,28,21,96,72,26,30.16,30.10,30.04,10,10,7,32,8,40,0.00,4,,278
2013-3-17,50,37,23,28,22,17,78,60,29,30.17,30.12,30.04,10,10,7,25,9,30,0.00,2,,267
2013-3-18,55,36,16,29,22,16,92,62,24,30.21,30.13,30.06,10,10,7,13,2,14,0.00,3,,4
2013-3-19,56,42,28,38,33,25,85,66,41,30.08,29.98,29.83,10,10,7,30,12,37,0.01,7,Rain,177
2013-3-20,53,41,29,41,35,22,82,71,59,30.09,29.84,29.77,10,10,7,32,18,44,0.09,6,Rain,224
2013-3-21,41,33,24,22,19,16,81,61,37,30.23,30.19,30.08,10,10,7,20,8,23,0.00,4,,298
2013-3-22,41,31,20,19,16,12,81,61,34,30.28,30.22,30.16,10,10,9,21,9,28,T,4,Snow,315
2013-3-23,50,32,13,22,14,6,88,55,20,30.30,30.22,30.14,10,10,7,10,3,23,0.00,2,,16
2013-3-24,56,38,20,31,24,16,92,60,32,30.18,30.10,30.00,10,10,7,13,2,15,0.00,5,,285
2013-3-25,60,43,26,36,29,25,92,61,31,29.99,29.92,29.82,10,10,7,20,4,25,T,5,,224
2013-3-26,52,46,39,40,36,34,86,73,50,29.94,29.90,29.85,10,10,7,14,4,16,0.01,7,Rain,245
2013-3-27,57,45,33,41,36,30,100,72,36,29.94,29.91,29.86,10,10,7,20,8,24,T,5,Fog-Rain,175
2013-3-28,58,45,32,39,36,32,96,71,43,30.13,30.00,29.93,10,10,7,24,7,30,0.01,5,Rain,163
2013-3-29,65,47,28,38,32,28,100,66,27,30.20,30.15,30.09,10,10,8,9,3,16,0.00,3,Fog,60
2013-3-30,73,53,32,39,34,28,89,58,20,30.17,30.07,29.95,10,10,7,16,5,22,0.00,3,,47
2013-3-31,53,46,38,44,40,35,100,78,59,30.06,29.98,29.91,10,9,4,22,8,28,0.43,7,Rain,259